sensor_id;sensor_type;location;lat;lon;timestamp;P1;durP1;ratioP1;P2;durP2;ratioP2
50429;SDS011;36359;41.556;-8.418;2023-05-07T00:00:01;19.13;;;5.45;;
50429;SDS011;36359;41.556;-8.418;2023-05-07T00:02:28;23.45;;;5.25;;
50429;SDS011;36359;41.556;-8.418;2023-05-07T00:04:54;19.05;;;5.15;;
50429;SDS011;36359;41.556;-8.418;2023-05-07T00:07:20;15.43;;;5.10;;
50429;SDS011;36359;41.556;-8.418;2023-05-07T00:09:46;24.73;;;5.55;;
50429;SDS011;36359;41.556;-8.418;2023-05-07T00:12:12;16.23;;;4.68;;
50429;SDS011;36359;41.556;-8.418;2023-05-07T00:14:37;22.40;;;5.80;;
50429;SDS011;36359;41.556;-8.418;2023-05-07T00:17:03;17.67;;;4.80;;
50429;SDS011;36359;41.556;-8.418;2023-05-07T00:19:29;19.27;;;5.18;;
50429;SDS011;36359;41.556;-8.418;2023-05-07T00:21:54;21.23;;;5.22;;
50429;SDS011;36359;41.556;-8.418;2023-05-07T00:24:21;19.00;;;5.45;;
50429;SDS011;36359;41.556;-8.418;2023-05-07T00:26:47;21.42;;;5.13;;
50429;SDS011;36359;41.556;-8.418;2023-05-07T00:29:13;20.17;;;5.50;;
50429;SDS011;36359;41.556;-8.418;2023-05-07T00:31:39;21.17;;;5.93;;
50429;SDS011;36359;41.556;-8.418;2023-05-07T00:34:05;18.45;;;5.70;;
50429;SDS011;36359;41.556;-8.418;2023-05-07T00:36:31;17.08;;;4.22;;
50429;SDS011;36359;41.556;-8.418;2023-05-07T00:38:58;20.95;;;5.32;;
50429;SDS011;36359;41.556;-8.418;2023-05-07T00:41:25;18.25;;;5.45;;
50429;SDS011;36359;41.556;-8.418;2023-05-07T00:43:51;19.40;;;5.35;;
50429;SDS011;36359;41.556;-8.418;2023-05-07T00:46:17;17.83;;;4.95;;
50429;SDS011;36359;41.556;-8.418;2023-05-07T00:48:45;17.98;;;5.88;;
50429;SDS011;36359;41.556;-8.418;2023-05-07T00:51:12;22.98;;;5.30;;
50429;SDS011;36359;41.556;-8.418;2023-05-07T00:53:38;20.45;;;5.18;;
50429;SDS011;36359;41.556;-8.418;2023-05-07T00:56:04;17.65;;;5.10;;
50429;SDS011;36359;41.556;-8.418;2023-05-07T00:58:32;19.98;;;5.90;;
50429;SDS011;36359;41.556;-8.418;2023-05-07T01:00:59;22.02;;;5.25;;
50429;SDS011;36359;41.556;-8.418;2023-05-07T01:03:25;22.48;;;5.32;;
50429;SDS011;36359;41.556;-8.418;2023-05-07T01:05:51;22.90;;;5.82;;
50429;SDS011;36359;41.556;-8.418;2023-05-07T01:08:19;24.42;;;6.38;;
50429;SDS011;36359;41.556;-8.418;2023-05-07T01:10:45;19.85;;;6.18;;
50429;SDS011;36359;41.556;-8.418;2023-05-07T01:13:12;20.90;;;6.70;;
50429;SDS011;36359;41.556;-8.418;2023-05-07T01:15:40;21.65;;;6.53;;
50429;SDS011;36359;41.556;-8.418;2023-05-07T01:18:06;21.38;;;6.28;;
50429;SDS011;36359;41.556;-8.418;2023-05-07T01:20:34;22.92;;;5.35;;
50429;SDS011;36359;41.556;-8.418;2023-05-07T01:23:00;23.70;;;6.25;;
50429;SDS011;36359;41.556;-8.418;2023-05-07T01:25:26;22.98;;;5.80;;
50429;SDS011;36359;41.556;-8.418;2023-05-07T01:27:56;21.23;;;6.18;;
50429;SDS011;36359;41.556;-8.418;2023-05-07T01:30:26;22.67;;;5.78;;
50429;SDS011;36359;41.556;-8.418;2023-05-07T01:32:58;11.35;;;4.85;;
50429;SDS011;36359;41.556;-8.418;2023-05-07T01:35:40;20.25;;;5.45;;
50429;SDS011;36359;41.556;-8.418;2023-05-07T01:38:09;19.77;;;5.78;;
50429;SDS011;36359;41.556;-8.418;2023-05-07T01:40:35;19.38;;;5.82;;
50429;SDS011;36359;41.556;-8.418;2023-05-07T01:43:02;19.42;;;5.38;;
50429;SDS011;36359;41.556;-8.418;2023-05-07T01:45:29;19.98;;;5.85;;
50429;SDS011;36359;41.556;-8.418;2023-05-07T01:47:56;19.00;;;5.07;;
50429;SDS011;36359;41.556;-8.418;2023-05-07T01:50:23;17.63;;;5.75;;
50429;SDS011;36359;41.556;-8.418;2023-05-07T01:52:51;19.60;;;6.00;;
50429;SDS011;36359;41.556;-8.418;2023-05-07T01:55:17;18.63;;;5.75;;
50429;SDS011;36359;41.556;-8.418;2023-05-07T01:57:43;19.75;;;5.80;;
50429;SDS011;36359;41.556;-8.418;2023-05-07T02:00:09;16.92;;;5.30;;
50429;SDS011;36359;41.556;-8.418;2023-05-07T02:02:35;20.73;;;5.80;;
50429;SDS011;36359;41.556;-8.418;2023-05-07T02:05:01;19.88;;;5.25;;
50429;SDS011;36359;41.556;-8.418;2023-05-07T02:07:27;17.13;;;4.70;;
50429;SDS011;36359;41.556;-8.418;2023-05-07T02:09:53;20.15;;;5.35;;
50429;SDS011;36359;41.556;-8.418;2023-05-07T02:12:21;18.05;;;4.78;;
50429;SDS011;36359;41.556;-8.418;2023-05-07T02:14:48;20.67;;;5.85;;
50429;SDS011;36359;41.556;-8.418;2023-05-07T02:17:15;17.85;;;4.82;;
50429;SDS011;36359;41.556;-8.418;2023-05-07T02:19:40;12.25;;;4.25;;
50429;SDS011;36359;41.556;-8.418;2023-05-07T02:22:07;13.93;;;4.70;;
50429;SDS011;36359;41.556;-8.418;2023-05-07T02:24:33;14.65;;;4.22;;
50429;SDS011;36359;41.556;-8.418;2023-05-07T02:26:58;16.10;;;4.22;;
50429;SDS011;36359;41.556;-8.418;2023-05-07T02:29:24;13.98;;;4.03;;
50429;SDS011;36359;41.556;-8.418;2023-05-07T02:31:51;18.25;;;4.72;;
50429;SDS011;36359;41.556;-8.418;2023-05-07T02:34:20;14.77;;;4.35;;
50429;SDS011;36359;41.556;-8.418;2023-05-07T02:36:46;17.45;;;4.85;;
50429;SDS011;36359;41.556;-8.418;2023-05-07T02:39:14;14.23;;;3.88;;
50429;SDS011;36359;41.556;-8.418;2023-05-07T02:41:40;19.45;;;4.10;;
50429;SDS011;36359;41.556;-8.418;2023-05-07T02:44:06;14.75;;;3.55;;
50429;SDS011;36359;41.556;-8.418;2023-05-07T02:46:32;19.17;;;4.95;;
50429;SDS011;36359;41.556;-8.418;2023-05-07T02:49:02;20.58;;;5.20;;
50429;SDS011;36359;41.556;-8.418;2023-05-07T02:51:29;15.93;;;4.38;;
50429;SDS011;36359;41.556;-8.418;2023-05-07T02:53:59;14.73;;;4.25;;
50429;SDS011;36359;41.556;-8.418;2023-05-07T02:56:27;18.42;;;3.65;;
50429;SDS011;36359;41.556;-8.418;2023-05-07T02:58:53;20.00;;;5.30;;
50429;SDS011;36359;41.556;-8.418;2023-05-07T03:01:21;21.80;;;5.32;;
50429;SDS011;36359;41.556;-8.418;2023-05-07T03:03:56;15.93;;;5.20;;
50429;SDS011;36359;41.556;-8.418;2023-05-07T03:06:22;17.75;;;5.45;;
50429;SDS011;36359;41.556;-8.418;2023-05-07T03:08:47;15.30;;;4.65;;
50429;SDS011;36359;41.556;-8.418;2023-05-07T03:11:13;17.25;;;4.85;;
50429;SDS011;36359;41.556;-8.418;2023-05-07T03:13:39;16.75;;;5.57;;
50429;SDS011;36359;41.556;-8.418;2023-05-07T03:16:06;17.50;;;5.13;;
50429;SDS011;36359;41.556;-8.418;2023-05-07T03:18:32;16.73;;;5.22;;
50429;SDS011;36359;41.556;-8.418;2023-05-07T03:20:57;39.03;;;14.90;;
50429;SDS011;36359;41.556;-8.418;2023-05-07T03:23:23;32.05;;;13.07;;
50429;SDS011;36359;41.556;-8.418;2023-05-07T03:25:49;26.00;;;9.40;;
50429;SDS011;36359;41.556;-8.418;2023-05-07T03:28:15;16.95;;;5.65;;
50429;SDS011;36359;41.556;-8.418;2023-05-07T03:33:16;17.23;;;5.35;;
50429;SDS011;36359;41.556;-8.418;2023-05-07T03:35:42;13.10;;;4.70;;
50429;SDS011;36359;41.556;-8.418;2023-05-07T03:38:09;13.70;;;4.43;;
50429;SDS011;36359;41.556;-8.418;2023-05-07T03:40:36;12.80;;;4.68;;
50429;SDS011;36359;41.556;-8.418;2023-05-07T03:43:03;14.13;;;4.10;;
50429;SDS011;36359;41.556;-8.418;2023-05-07T03:45:30;13.68;;;4.40;;
50429;SDS011;36359;41.556;-8.418;2023-05-07T03:48:06;14.82;;;5.00;;
50429;SDS011;36359;41.556;-8.418;2023-05-07T03:50:32;12.52;;;4.00;;
50429;SDS011;36359;41.556;-8.418;2023-05-07T03:52:58;11.70;;;3.92;;
50429;SDS011;36359;41.556;-8.418;2023-05-07T03:55:24;15.07;;;4.72;;
50429;SDS011;36359;41.556;-8.418;2023-05-07T03:57:55;10.77;;;3.78;;
50429;SDS011;36359;41.556;-8.418;2023-05-07T04:00:23;13.75;;;4.07;;
50429;SDS011;36359;41.556;-8.418;2023-05-07T04:02:49;13.57;;;3.42;;
50429;SDS011;36359;41.556;-8.418;2023-05-07T04:05:21;15.40;;;4.35;;
50429;SDS011;36359;41.556;-8.418;2023-05-07T04:07:50;12.80;;;3.75;;
50429;SDS011;36359;41.556;-8.418;2023-05-07T04:10:20;14.90;;;4.03;;
50429;SDS011;36359;41.556;-8.418;2023-05-07T04:12:48;16.33;;;4.07;;
50429;SDS011;36359;41.556;-8.418;2023-05-07T04:15:18;16.85;;;4.82;;
50429;SDS011;36359;41.556;-8.418;2023-05-07T04:17:44;14.15;;;4.00;;
50429;SDS011;36359;41.556;-8.418;2023-05-07T04:20:15;16.50;;;5.32;;
50429;SDS011;36359;41.556;-8.418;2023-05-07T04:22:44;10.93;;;3.78;;
50429;SDS011;36359;41.556;-8.418;2023-05-07T04:25:10;16.45;;;3.55;;
50429;SDS011;36359;41.556;-8.418;2023-05-07T04:27:36;13.55;;;4.40;;
50429;SDS011;36359;41.556;-8.418;2023-05-07T04:30:03;14.52;;;4.43;;
50429;SDS011;36359;41.556;-8.418;2023-05-07T04:32:34;14.05;;;4.47;;
50429;SDS011;36359;41.556;-8.418;2023-05-07T04:35:01;14.52;;;4.40;;
50429;SDS011;36359;41.556;-8.418;2023-05-07T04:37:27;20.58;;;5.20;;
50429;SDS011;36359;41.556;-8.418;2023-05-07T04:39:53;16.48;;;4.95;;
50429;SDS011;36359;41.556;-8.418;2023-05-07T04:42:20;13.65;;;5.05;;
50429;SDS011;36359;41.556;-8.418;2023-05-07T04:44:46;14.05;;;4.53;;
50429;SDS011;36359;41.556;-8.418;2023-05-07T04:47:12;17.65;;;4.95;;
50429;SDS011;36359;41.556;-8.418;2023-05-07T04:49:38;14.68;;;4.78;;
50429;SDS011;36359;41.556;-8.418;2023-05-07T04:52:10;16.42;;;4.60;;
50429;SDS011;36359;41.556;-8.418;2023-05-07T04:54:35;17.35;;;5.70;;
50429;SDS011;36359;41.556;-8.418;2023-05-07T04:57:03;15.77;;;4.55;;
50429;SDS011;36359;41.556;-8.418;2023-05-07T04:59:29;16.17;;;4.78;;
50429;SDS011;36359;41.556;-8.418;2023-05-07T05:01:55;13.40;;;4.40;;
50429;SDS011;36359;41.556;-8.418;2023-05-07T05:04:21;15.15;;;5.20;;
50429;SDS011;36359;41.556;-8.418;2023-05-07T05:06:47;17.60;;;5.18;;
50429;SDS011;36359;41.556;-8.418;2023-05-07T05:09:13;15.73;;;4.85;;
50429;SDS011;36359;41.556;-8.418;2023-05-07T05:11:41;12.45;;;4.28;;
50429;SDS011;36359;41.556;-8.418;2023-05-07T05:14:06;20.95;;;6.22;;
50429;SDS011;36359;41.556;-8.418;2023-05-07T05:16:32;17.75;;;4.78;;
50429;SDS011;36359;41.556;-8.418;2023-05-07T05:18:58;16.73;;;5.13;;
50429;SDS011;36359;41.556;-8.418;2023-05-07T05:21:24;19.13;;;5.80;;
50429;SDS011;36359;41.556;-8.418;2023-05-07T05:23:54;16.90;;;5.10;;
50429;SDS011;36359;41.556;-8.418;2023-05-07T05:26:23;19.42;;;5.43;;
50429;SDS011;36359;41.556;-8.418;2023-05-07T05:28:48;19.40;;;5.88;;
50429;SDS011;36359;41.556;-8.418;2023-05-07T05:31:17;18.05;;;5.13;;
50429;SDS011;36359;41.556;-8.418;2023-05-07T05:33:43;15.65;;;4.55;;
50429;SDS011;36359;41.556;-8.418;2023-05-07T05:36:09;16.48;;;4.82;;
50429;SDS011;36359;41.556;-8.418;2023-05-07T05:38:36;15.80;;;4.28;;
50429;SDS011;36359;41.556;-8.418;2023-05-07T05:41:02;12.73;;;4.72;;
50429;SDS011;36359;41.556;-8.418;2023-05-07T05:43:29;18.25;;;4.95;;
50429;SDS011;36359;41.556;-8.418;2023-05-07T05:45:55;16.17;;;5.45;;
50429;SDS011;36359;41.556;-8.418;2023-05-07T05:48:22;16.35;;;5.32;;
50429;SDS011;36359;41.556;-8.418;2023-05-07T05:50:48;12.80;;;5.18;;
50429;SDS011;36359;41.556;-8.418;2023-05-07T05:53:32;20.85;;;7.60;;
50429;SDS011;36359;41.556;-8.418;2023-05-07T05:55:58;28.02;;;10.57;;
50429;SDS011;36359;41.556;-8.418;2023-05-07T05:58:24;29.95;;;11.57;;
50429;SDS011;36359;41.556;-8.418;2023-05-07T06:00:56;26.00;;;8.82;;
50429;SDS011;36359;41.556;-8.418;2023-05-07T06:03:24;28.40;;;10.23;;
50429;SDS011;36359;41.556;-8.418;2023-05-07T06:05:50;21.40;;;8.70;;
50429;SDS011;36359;41.556;-8.418;2023-05-07T06:08:18;22.70;;;8.52;;
50429;SDS011;36359;41.556;-8.418;2023-05-07T06:10:45;18.48;;;7.60;;
50429;SDS011;36359;41.556;-8.418;2023-05-07T06:13:10;20.20;;;8.25;;
50429;SDS011;36359;41.556;-8.418;2023-05-07T06:15:36;26.10;;;9.75;;
50429;SDS011;36359;41.556;-8.418;2023-05-07T06:18:07;26.58;;;7.65;;
50429;SDS011;36359;41.556;-8.418;2023-05-07T06:20:33;21.25;;;7.97;;
50429;SDS011;36359;41.556;-8.418;2023-05-07T06:23:01;15.32;;;5.50;;
50429;SDS011;36359;41.556;-8.418;2023-05-07T06:25:28;17.10;;;6.00;;
50429;SDS011;36359;41.556;-8.418;2023-05-07T06:27:54;18.00;;;5.45;;
50429;SDS011;36359;41.556;-8.418;2023-05-07T06:30:20;17.58;;;5.57;;
50429;SDS011;36359;41.556;-8.418;2023-05-07T06:32:46;14.70;;;5.63;;
50429;SDS011;36359;41.556;-8.418;2023-05-07T06:35:13;20.45;;;6.55;;
50429;SDS011;36359;41.556;-8.418;2023-05-07T06:37:40;14.07;;;5.82;;
50429;SDS011;36359;41.556;-8.418;2023-05-07T06:40:12;12.70;;;6.00;;
50429;SDS011;36359;41.556;-8.418;2023-05-07T06:42:39;14.32;;;6.43;;
50429;SDS011;36359;41.556;-8.418;2023-05-07T06:45:22;28.08;;;7.18;;
50429;SDS011;36359;41.556;-8.418;2023-05-07T06:47:48;26.13;;;7.57;;
50429;SDS011;36359;41.556;-8.418;2023-05-07T06:50:13;20.75;;;7.00;;
50429;SDS011;36359;41.556;-8.418;2023-05-07T06:52:43;15.88;;;5.68;;
50429;SDS011;36359;41.556;-8.418;2023-05-07T06:55:09;18.35;;;6.80;;
50429;SDS011;36359;41.556;-8.418;2023-05-07T06:57:36;14.95;;;5.95;;
50429;SDS011;36359;41.556;-8.418;2023-05-07T07:00:02;14.63;;;5.90;;
50429;SDS011;36359;41.556;-8.418;2023-05-07T07:02:36;19.30;;;7.80;;
50429;SDS011;36359;41.556;-8.418;2023-05-07T07:05:01;20.05;;;7.53;;
50429;SDS011;36359;41.556;-8.418;2023-05-07T07:07:27;20.92;;;9.20;;
50429;SDS011;36359;41.556;-8.418;2023-05-07T07:09:53;24.25;;;10.25;;
50429;SDS011;36359;41.556;-8.418;2023-05-07T07:12:18;21.38;;;10.77;;
50429;SDS011;36359;41.556;-8.418;2023-05-07T07:14:44;20.52;;;10.45;;
50429;SDS011;36359;41.556;-8.418;2023-05-07T07:17:11;19.10;;;8.23;;
50429;SDS011;36359;41.556;-8.418;2023-05-07T07:19:37;18.33;;;8.60;;
50429;SDS011;36359;41.556;-8.418;2023-05-07T07:22:04;15.88;;;7.60;;
50429;SDS011;36359;41.556;-8.418;2023-05-07T07:24:31;19.92;;;8.10;;
50429;SDS011;36359;41.556;-8.418;2023-05-07T07:27:00;23.63;;;10.00;;
50429;SDS011;36359;41.556;-8.418;2023-05-07T07:29:26;22.02;;;10.48;;
50429;SDS011;36359;41.556;-8.418;2023-05-07T07:31:52;23.13;;;7.43;;
50429;SDS011;36359;41.556;-8.418;2023-05-07T07:34:19;21.27;;;8.32;;
50429;SDS011;36359;41.556;-8.418;2023-05-07T07:36:45;18.13;;;6.07;;
50429;SDS011;36359;41.556;-8.418;2023-05-07T07:39:12;21.10;;;8.20;;
50429;SDS011;36359;41.556;-8.418;2023-05-07T07:41:38;17.60;;;6.55;;
50429;SDS011;36359;41.556;-8.418;2023-05-07T07:44:04;16.10;;;5.05;;
50429;SDS011;36359;41.556;-8.418;2023-05-07T07:49:00;14.55;;;5.07;;
50429;SDS011;36359;41.556;-8.418;2023-05-07T07:51:26;15.07;;;5.30;;
50429;SDS011;36359;41.556;-8.418;2023-05-07T07:53:52;13.82;;;4.70;;
50429;SDS011;36359;41.556;-8.418;2023-05-07T07:56:18;21.80;;;5.70;;
50429;SDS011;36359;41.556;-8.418;2023-05-07T07:58:44;15.90;;;5.32;;
50429;SDS011;36359;41.556;-8.418;2023-05-07T08:01:10;18.05;;;4.88;;
50429;SDS011;36359;41.556;-8.418;2023-05-07T08:03:37;13.18;;;4.72;;
50429;SDS011;36359;41.556;-8.418;2023-05-07T08:06:04;15.60;;;4.72;;
50429;SDS011;36359;41.556;-8.418;2023-05-07T08:08:31;10.23;;;4.03;;
50429;SDS011;36359;41.556;-8.418;2023-05-07T08:10:57;11.57;;;3.55;;
50429;SDS011;36359;41.556;-8.418;2023-05-07T08:13:27;11.85;;;4.53;;
50429;SDS011;36359;41.556;-8.418;2023-05-07T08:15:53;13.32;;;4.43;;
50429;SDS011;36359;41.556;-8.418;2023-05-07T08:18:19;13.30;;;4.38;;
50429;SDS011;36359;41.556;-8.418;2023-05-07T08:20:45;15.63;;;5.28;;
50429;SDS011;36359;41.556;-8.418;2023-05-07T08:23:15;15.98;;;4.43;;
50429;SDS011;36359;41.556;-8.418;2023-05-07T08:25:41;15.70;;;5.93;;
50429;SDS011;36359;41.556;-8.418;2023-05-07T08:28:08;12.70;;;5.07;;
50429;SDS011;36359;41.556;-8.418;2023-05-07T08:30:34;12.57;;;4.93;;
50429;SDS011;36359;41.556;-8.418;2023-05-07T08:33:00;15.77;;;4.97;;
50429;SDS011;36359;41.556;-8.418;2023-05-07T08:35:26;11.68;;;4.40;;
50429;SDS011;36359;41.556;-8.418;2023-05-07T08:37:53;11.15;;;4.18;;
50429;SDS011;36359;41.556;-8.418;2023-05-07T08:40:22;12.98;;;4.45;;
50429;SDS011;36359;41.556;-8.418;2023-05-07T08:42:51;12.88;;;5.15;;
50429;SDS011;36359;41.556;-8.418;2023-05-07T08:45:18;15.40;;;5.35;;
50429;SDS011;36359;41.556;-8.418;2023-05-07T08:47:52;13.57;;;5.22;;
50429;SDS011;36359;41.556;-8.418;2023-05-07T08:50:25;14.57;;;5.43;;
50429;SDS011;36359;41.556;-8.418;2023-05-07T08:52:52;15.70;;;5.38;;
50429;SDS011;36359;41.556;-8.418;2023-05-07T08:55:19;11.55;;;4.40;;
50429;SDS011;36359;41.556;-8.418;2023-05-07T08:57:46;15.10;;;4.05;;
50429;SDS011;36359;41.556;-8.418;2023-05-07T09:00:14;13.02;;;3.80;;
50429;SDS011;36359;41.556;-8.418;2023-05-07T09:02:42;12.82;;;3.58;;
50429;SDS011;36359;41.556;-8.418;2023-05-07T09:05:08;14.57;;;4.10;;
50429;SDS011;36359;41.556;-8.418;2023-05-07T09:07:35;11.82;;;3.30;;
50429;SDS011;36359;41.556;-8.418;2023-05-07T09:10:03;10.15;;;3.05;;
50429;SDS011;36359;41.556;-8.418;2023-05-07T09:12:31;13.60;;;4.13;;
50429;SDS011;36359;41.556;-8.418;2023-05-07T09:14:58;10.77;;;3.10;;
50429;SDS011;36359;41.556;-8.418;2023-05-07T09:17:25;13.27;;;3.60;;
50429;SDS011;36359;41.556;-8.418;2023-05-07T09:19:51;15.15;;;3.78;;
50429;SDS011;36359;41.556;-8.418;2023-05-07T09:22:19;13.23;;;3.38;;
50429;SDS011;36359;41.556;-8.418;2023-05-07T09:24:59;11.70;;;3.53;;
50429;SDS011;36359;41.556;-8.418;2023-05-07T09:27:26;15.50;;;3.80;;
50429;SDS011;36359;41.556;-8.418;2023-05-07T09:29:54;9.82;;;3.05;;
50429;SDS011;36359;41.556;-8.418;2023-05-07T09:32:19;9.50;;;3.10;;
50429;SDS011;36359;41.556;-8.418;2023-05-07T09:34:45;12.13;;;3.75;;
50429;SDS011;36359;41.556;-8.418;2023-05-07T09:37:14;8.05;;;3.15;;
50429;SDS011;36359;41.556;-8.418;2023-05-07T09:39:50;11.82;;;3.13;;
50429;SDS011;36359;41.556;-8.418;2023-05-07T09:42:26;9.88;;;3.05;;
50429;SDS011;36359;41.556;-8.418;2023-05-07T09:44:55;13.18;;;3.67;;
50429;SDS011;36359;41.556;-8.418;2023-05-07T09:47:24;7.10;;;2.58;;
50429;SDS011;36359;41.556;-8.418;2023-05-07T09:49:57;8.43;;;3.22;;
50429;SDS011;36359;41.556;-8.418;2023-05-07T09:52:28;15.73;;;4.55;;
50429;SDS011;36359;41.556;-8.418;2023-05-07T09:55:00;11.93;;;3.92;;
50429;SDS011;36359;41.556;-8.418;2023-05-07T09:57:29;11.20;;;4.28;;
50429;SDS011;36359;41.556;-8.418;2023-05-07T09:59:59;13.52;;;4.10;;
50429;SDS011;36359;41.556;-8.418;2023-05-07T10:02:35;7.80;;;2.67;;
50429;SDS011;36359;41.556;-8.418;2023-05-07T10:05:03;10.95;;;3.50;;
50429;SDS011;36359;41.556;-8.418;2023-05-07T10:07:31;15.07;;;4.10;;
50429;SDS011;36359;41.556;-8.418;2023-05-07T10:10:04;7.72;;;3.28;;
50429;SDS011;36359;41.556;-8.418;2023-05-07T10:12:36;7.63;;;2.83;;
50429;SDS011;36359;41.556;-8.418;2023-05-07T10:15:06;10.05;;;4.18;;
50429;SDS011;36359;41.556;-8.418;2023-05-07T10:17:36;14.77;;;3.90;;
50429;SDS011;36359;41.556;-8.418;2023-05-07T10:20:04;15.15;;;4.10;;
50429;SDS011;36359;41.556;-8.418;2023-05-07T10:22:33;16.48;;;4.07;;
50429;SDS011;36359;41.556;-8.418;2023-05-07T10:25:06;17.90;;;4.93;;
50429;SDS011;36359;41.556;-8.418;2023-05-07T10:27:40;17.45;;;4.20;;
50429;SDS011;36359;41.556;-8.418;2023-05-07T10:33:04;13.70;;;3.72;;
50429;SDS011;36359;41.556;-8.418;2023-05-07T10:35:38;13.75;;;3.92;;
50429;SDS011;36359;41.556;-8.418;2023-05-07T10:38:07;11.65;;;3.42;;
50429;SDS011;36359;41.556;-8.418;2023-05-07T10:40:36;17.85;;;4.18;;
50429;SDS011;36359;41.556;-8.418;2023-05-07T10:43:03;15.13;;;3.95;;
50429;SDS011;36359;41.556;-8.418;2023-05-07T10:45:36;12.57;;;3.70;;
50429;SDS011;36359;41.556;-8.418;2023-05-07T10:50:36;11.23;;;3.22;;
50429;SDS011;36359;41.556;-8.418;2023-05-07T11:01:00;10.73;;;3.72;;
50429;SDS011;36359;41.556;-8.418;2023-05-07T11:03:35;10.80;;;3.30;;
50429;SDS011;36359;41.556;-8.418;2023-05-07T11:06:09;16.37;;;3.53;;
50429;SDS011;36359;41.556;-8.418;2023-05-07T11:08:59;12.40;;;2.63;;
50429;SDS011;36359;41.556;-8.418;2023-05-07T11:11:54;9.35;;;2.90;;
50429;SDS011;36359;41.556;-8.418;2023-05-07T11:17:10;8.73;;;2.55;;
50429;SDS011;36359;41.556;-8.418;2023-05-07T11:19:53;9.23;;;2.47;;
50429;SDS011;36359;41.556;-8.418;2023-05-07T11:22:36;10.02;;;3.35;;
50429;SDS011;36359;41.556;-8.418;2023-05-07T11:25:22;9.00;;;2.28;;
50429;SDS011;36359;41.556;-8.418;2023-05-07T11:28:11;12.85;;;3.42;;
50429;SDS011;36359;41.556;-8.418;2023-05-07T11:30:46;10.05;;;3.08;;
50429;SDS011;36359;41.556;-8.418;2023-05-07T11:33:16;6.43;;;2.50;;
50429;SDS011;36359;41.556;-8.418;2023-05-07T11:35:44;10.50;;;2.72;;
50429;SDS011;36359;41.556;-8.418;2023-05-07T11:38:14;11.20;;;2.70;;
50429;SDS011;36359;41.556;-8.418;2023-05-07T11:40:50;10.68;;;2.53;;
50429;SDS011;36359;41.556;-8.418;2023-05-07T11:43:16;8.90;;;2.40;;
50429;SDS011;36359;41.556;-8.418;2023-05-07T11:45:42;7.88;;;2.08;;
50429;SDS011;36359;41.556;-8.418;2023-05-07T11:48:09;7.82;;;2.30;;
50429;SDS011;36359;41.556;-8.418;2023-05-07T11:50:35;8.85;;;2.35;;
50429;SDS011;36359;41.556;-8.418;2023-05-07T11:53:07;7.05;;;1.90;;
50429;SDS011;36359;41.556;-8.418;2023-05-07T11:55:33;5.65;;;1.95;;
50429;SDS011;36359;41.556;-8.418;2023-05-07T11:57:59;9.43;;;2.33;;
50429;SDS011;36359;41.556;-8.418;2023-05-07T12:00:24;7.18;;;2.17;;
50429;SDS011;36359;41.556;-8.418;2023-05-07T12:02:50;10.10;;;2.83;;
50429;SDS011;36359;41.556;-8.418;2023-05-07T12:05:16;8.18;;;2.10;;
50429;SDS011;36359;41.556;-8.418;2023-05-07T12:07:41;9.82;;;2.58;;
50429;SDS011;36359;41.556;-8.418;2023-05-07T12:10:08;9.88;;;2.25;;
50429;SDS011;36359;41.556;-8.418;2023-05-07T12:12:45;8.82;;;2.15;;
50429;SDS011;36359;41.556;-8.418;2023-05-07T12:15:13;8.60;;;2.42;;
50429;SDS011;36359;41.556;-8.418;2023-05-07T12:17:41;6.18;;;1.90;;
50429;SDS011;36359;41.556;-8.418;2023-05-07T12:20:07;9.60;;;2.60;;
50429;SDS011;36359;41.556;-8.418;2023-05-07T12:22:33;9.80;;;2.63;;
50429;SDS011;36359;41.556;-8.418;2023-05-07T12:24:59;8.23;;;2.47;;
50429;SDS011;36359;41.556;-8.418;2023-05-07T12:27:25;9.32;;;2.75;;
50429;SDS011;36359;41.556;-8.418;2023-05-07T12:29:51;9.02;;;2.50;;
50429;SDS011;36359;41.556;-8.418;2023-05-07T12:32:17;8.32;;;2.63;;
50429;SDS011;36359;41.556;-8.418;2023-05-07T12:34:45;7.70;;;2.13;;
50429;SDS011;36359;41.556;-8.418;2023-05-07T12:37:12;8.30;;;2.35;;
50429;SDS011;36359;41.556;-8.418;2023-05-07T12:39:38;9.13;;;2.40;;
50429;SDS011;36359;41.556;-8.418;2023-05-07T12:42:09;8.75;;;2.50;;
50429;SDS011;36359;41.556;-8.418;2023-05-07T12:44:41;7.10;;;2.13;;
50429;SDS011;36359;41.556;-8.418;2023-05-07T12:47:07;7.00;;;2.17;;
50429;SDS011;36359;41.556;-8.418;2023-05-07T12:49:34;9.93;;;2.30;;
50429;SDS011;36359;41.556;-8.418;2023-05-07T12:52:02;8.95;;;2.28;;
50429;SDS011;36359;41.556;-8.418;2023-05-07T12:54:29;8.82;;;2.45;;
50429;SDS011;36359;41.556;-8.418;2023-05-07T12:59:46;8.48;;;2.03;;
50429;SDS011;36359;41.556;-8.418;2023-05-07T13:02:12;6.75;;;2.42;;
50429;SDS011;36359;41.556;-8.418;2023-05-07T13:04:39;7.22;;;2.05;;
50429;SDS011;36359;41.556;-8.418;2023-05-07T13:07:05;7.10;;;2.38;;
50429;SDS011;36359;41.556;-8.418;2023-05-07T13:09:31;9.10;;;2.53;;
50429;SDS011;36359;41.556;-8.418;2023-05-07T13:11:57;6.93;;;1.85;;
50429;SDS011;36359;41.556;-8.418;2023-05-07T13:14:25;7.50;;;2.13;;
50429;SDS011;36359;41.556;-8.418;2023-05-07T13:16:50;7.22;;;2.17;;
50429;SDS011;36359;41.556;-8.418;2023-05-07T13:19:16;7.90;;;2.30;;
50429;SDS011;36359;41.556;-8.418;2023-05-07T13:21:42;8.82;;;2.03;;
50429;SDS011;36359;41.556;-8.418;2023-05-07T13:24:08;6.32;;;1.63;;
50429;SDS011;36359;41.556;-8.418;2023-05-07T13:26:33;6.07;;;2.00;;
50429;SDS011;36359;41.556;-8.418;2023-05-07T13:28:59;7.20;;;2.03;;
50429;SDS011;36359;41.556;-8.418;2023-05-07T13:31:25;6.85;;;1.95;;
50429;SDS011;36359;41.556;-8.418;2023-05-07T13:33:51;8.27;;;2.22;;
50429;SDS011;36359;41.556;-8.418;2023-05-07T13:36:17;6.13;;;2.20;;
50429;SDS011;36359;41.556;-8.418;2023-05-07T13:38:43;6.50;;;1.65;;
50429;SDS011;36359;41.556;-8.418;2023-05-07T13:41:09;7.22;;;2.40;;
50429;SDS011;36359;41.556;-8.418;2023-05-07T13:43:35;6.60;;;1.77;;
50429;SDS011;36359;41.556;-8.418;2023-05-07T13:46:00;6.10;;;1.80;;
50429;SDS011;36359;41.556;-8.418;2023-05-07T13:48:26;7.82;;;1.98;;
50429;SDS011;36359;41.556;-8.418;2023-05-07T13:50:53;6.05;;;1.70;;
50429;SDS011;36359;41.556;-8.418;2023-05-07T13:53:19;6.45;;;1.88;;
50429;SDS011;36359;41.556;-8.418;2023-05-07T13:55:45;8.10;;;2.13;;
50429;SDS011;36359;41.556;-8.418;2023-05-07T13:58:10;5.53;;;1.70;;
50429;SDS011;36359;41.556;-8.418;2023-05-07T14:00:36;5.53;;;1.73;;
50429;SDS011;36359;41.556;-8.418;2023-05-07T14:03:03;5.70;;;1.77;;
50429;SDS011;36359;41.556;-8.418;2023-05-07T14:05:30;6.68;;;1.80;;
50429;SDS011;36359;41.556;-8.418;2023-05-07T14:07:58;5.63;;;1.65;;
50429;SDS011;36359;41.556;-8.418;2023-05-07T14:10:24;7.53;;;1.90;;
50429;SDS011;36359;41.556;-8.418;2023-05-07T14:12:50;9.45;;;2.47;;
50429;SDS011;36359;41.556;-8.418;2023-05-07T14:15:16;7.45;;;1.85;;
50429;SDS011;36359;41.556;-8.418;2023-05-07T14:17:42;5.38;;;1.65;;
50429;SDS011;36359;41.556;-8.418;2023-05-07T14:20:08;6.32;;;1.92;;
50429;SDS011;36359;41.556;-8.418;2023-05-07T14:22:35;6.35;;;1.63;;
50429;SDS011;36359;41.556;-8.418;2023-05-07T14:25:02;4.18;;;1.52;;
50429;SDS011;36359;41.556;-8.418;2023-05-07T14:27:27;8.25;;;1.95;;
50429;SDS011;36359;41.556;-8.418;2023-05-07T14:29:53;8.85;;;1.60;;
50429;SDS011;36359;41.556;-8.418;2023-05-07T14:32:20;5.80;;;1.77;;
50429;SDS011;36359;41.556;-8.418;2023-05-07T14:37:19;8.48;;;2.13;;
50429;SDS011;36359;41.556;-8.418;2023-05-07T14:39:45;8.40;;;2.20;;
50429;SDS011;36359;41.556;-8.418;2023-05-07T14:42:10;8.23;;;2.42;;
50429;SDS011;36359;41.556;-8.418;2023-05-07T14:44:37;7.45;;;1.98;;
50429;SDS011;36359;41.556;-8.418;2023-05-07T14:47:05;8.63;;;2.38;;
50429;SDS011;36359;41.556;-8.418;2023-05-07T14:49:31;7.70;;;1.80;;
50429;SDS011;36359;41.556;-8.418;2023-05-07T14:51:57;7.55;;;2.38;;